createdAt,value
2018-03-02T00:00:39.387Z,33.40
2018-03-02T00:03:06.911Z,32.90
2018-03-02T00:05:34.429Z,32.80
2018-03-02T00:08:02.740Z,32.90
2018-03-02T00:10:30.265Z,32.60
2018-03-02T00:12:58.564Z,32.80
2018-03-02T00:15:26.091Z,32.80
2018-03-02T00:17:54.375Z,33.50
2018-03-02T00:20:22.680Z,32.00
2018-03-02T00:22:50.196Z,32.10
2018-03-02T00:25:17.743Z,33.10
2018-03-02T00:27:45.277Z,32.60
2018-03-02T00:30:12.803Z,32.90
2018-03-02T00:32:41.080Z,32.50
2018-03-02T00:35:09.380Z,32.90
2018-03-02T00:37:36.903Z,32.90
2018-03-02T00:40:05.189Z,32.70
2018-03-02T00:42:33.485Z,32.50
2018-03-02T00:45:01.046Z,32.80
2018-03-02T00:47:28.589Z,32.00
2018-03-02T00:49:56.872Z,32.50
2018-03-02T00:52:25.180Z,32.30
2018-03-02T00:54:52.695Z,32.60
2018-03-02T00:57:21.001Z,32.40
2018-03-02T00:59:48.520Z,32.60
2018-03-02T01:02:16.050Z,32.80
2018-03-02T01:04:43.568Z,32.70
2018-03-02T01:07:11.861Z,32.50
2018-03-02T01:09:39.379Z,32.30
2018-03-02T01:12:06.929Z,33.00
2018-03-02T01:14:34.453Z,32.90
2018-03-02T01:17:01.980Z,32.90
2018-03-02T01:19:30.278Z,32.70
2018-03-02T01:21:57.792Z,32.70
2018-03-02T01:24:25.331Z,32.40
2018-03-02T01:26:52.856Z,32.10
2018-03-02T01:29:20.412Z,32.30
2018-03-02T01:31:47.937Z,32.70
2018-03-02T01:34:15.903Z,32.50
2018-03-02T01:36:43.440Z,32.60
2018-03-02T01:39:10.967Z,31.60
2018-03-02T01:41:38.499Z,31.70
2018-03-02T01:44:06.804Z,32.30
2018-03-02T01:46:34.323Z,32.40
2018-03-02T01:49:01.891Z,32.10
2018-03-02T01:51:41.028Z,31.80
2018-03-02T01:54:09.325Z,32.60
2018-03-02T01:56:36.851Z,32.30
2018-03-02T01:59:04.424Z,31.90
2018-03-02T02:01:32.715Z,32.10
2018-03-02T02:04:01.000Z,32.30
2018-03-02T02:06:28.537Z,32.30
2018-03-02T02:08:56.056Z,32.20
2018-03-02T02:11:23.580Z,32.50
2018-03-02T02:13:51.107Z,32.40
2018-03-02T02:16:18.716Z,31.60
2018-03-02T02:18:46.232Z,32.20
2018-03-02T02:21:13.774Z,32.20
2018-03-02T02:23:41.304Z,32.30
2018-03-02T02:26:09.085Z,31.30
2018-03-02T02:28:36.600Z,32.30
2018-03-02T02:31:04.875Z,32.50
2018-03-02T02:33:32.412Z,32.30
2018-03-02T02:35:59.936Z,31.90
2018-03-02T02:38:27.475Z,31.80
2018-03-02T02:40:55.008Z,31.80
2018-03-02T02:43:23.314Z,32.10
2018-03-02T02:45:50.845Z,32.10
2018-03-02T02:48:19.145Z,32.60
2018-03-02T02:50:46.656Z,32.30
2018-03-02T02:53:14.183Z,32.10
2018-03-02T02:55:41.696Z,32.20
2018-03-02T02:58:09.251Z,32.20
2018-03-02T03:00:36.776Z,31.20
2018-03-02T03:03:04.350Z,31.90
2018-03-02T03:05:31.880Z,31.40
2018-03-02T03:07:59.395Z,31.70
2018-03-02T03:10:26.932Z,31.10
2018-03-02T03:12:54.447Z,32.50
2018-03-02T03:15:21.971Z,31.70
2018-03-02T03:17:50.260Z,31.20
2018-03-02T03:20:18.555Z,32.10
2018-03-02T03:22:46.076Z,31.90
2018-03-02T03:25:13.614Z,31.90
2018-03-02T03:27:41.137Z,31.90
2018-03-02T03:30:08.666Z,31.00
2018-03-02T03:32:36.193Z,31.60
2018-03-02T03:35:03.744Z,31.50
2018-03-02T03:37:31.270Z,31.00
2018-03-02T03:39:59.560Z,31.50
2018-03-02T03:42:27.137Z,31.50
2018-03-02T03:44:54.647Z,31.90
2018-03-02T03:47:22.175Z,31.30
2018-03-02T03:49:49.692Z,31.30
2018-03-02T03:52:17.242Z,31.70
2018-03-02T03:54:45.528Z,30.90
2018-03-02T03:57:13.828Z,30.90
2018-03-02T03:59:41.418Z,31.60
2018-03-02T04:02:08.960Z,31.50
2018-03-02T04:04:36.491Z,31.30
2018-03-02T04:07:04.031Z,31.90
2018-03-02T04:09:32.326Z,31.40
2018-03-02T04:12:00.632Z,31.20
2018-03-02T04:14:28.164Z,31.50
2018-03-02T04:16:55.687Z,31.60
2018-03-02T04:19:23.224Z,32.30
2018-03-02T04:21:50.744Z,31.50
2018-03-02T04:24:18.276Z,31.60
2018-03-02T04:26:45.789Z,31.80
2018-03-02T04:29:13.321Z,31.30
2018-03-02T04:31:40.831Z,32.10
2018-03-02T04:34:08.423Z,31.30
2018-03-02T04:36:35.949Z,31.90
2018-03-02T04:39:04.244Z,31.50
2018-03-02T04:41:31.748Z,31.80
2018-03-02T04:43:59.275Z,31.30
2018-03-02T04:46:26.804Z,31.60
2018-03-02T04:48:54.324Z,31.70
2018-03-02T04:51:22.627Z,31.30
2018-03-02T04:53:50.154Z,31.20
2018-03-02T04:56:18.451Z,31.30
2018-03-02T04:58:45.967Z,31.50
2018-03-02T05:01:13.502Z,31.40
2018-03-02T05:03:41.061Z,30.90
2018-03-02T05:06:08.852Z,31.30
2018-03-02T05:08:36.386Z,31.50
2018-03-02T05:11:03.919Z,31.20
2018-03-02T05:13:31.459Z,31.00
2018-03-02T05:15:59.000Z,30.40
2018-03-02T05:18:26.512Z,30.80
2018-03-02T05:20:54.060Z,31.10
2018-03-02T05:23:21.593Z,30.80
2018-03-02T05:25:49.891Z,31.10
2018-03-02T05:28:17.417Z,31.30
2018-03-02T05:30:44.963Z,30.50
2018-03-02T05:33:12.492Z,31.20
2018-03-02T05:35:40.022Z,30.90
2018-03-02T05:38:07.582Z,30.90
2018-03-02T05:40:35.099Z,30.70
2018-03-02T05:43:02.644Z,31.30
2018-03-02T05:45:30.164Z,31.70
2018-03-02T05:47:57.698Z,32.20
2018-03-02T05:50:25.214Z,31.30
2018-03-02T05:52:52.739Z,32.00
2018-03-02T05:55:21.015Z,31.40
2018-03-02T05:57:49.328Z,30.40
2018-03-02T06:00:16.849Z,31.00
2018-03-02T09:36:09.429Z,32.60
2018-03-02T09:38:36.989Z,32.20
2018-03-02T09:41:05.305Z,32.30
2018-03-02T09:43:32.833Z,32.20
2018-03-02T09:46:00.392Z,32.30
2018-03-02T09:48:27.908Z,32.00
2018-03-02T09:50:55.415Z,31.90
2018-03-02T09:53:22.956Z,32.40
2018-03-02T09:55:51.240Z,31.80
2018-03-02T09:58:19.548Z,31.70
2018-03-02T10:00:47.069Z,32.00
2018-03-02T10:03:14.627Z,31.40
2018-03-02T10:05:42.925Z,32.00
2018-03-02T10:08:10.467Z,32.10
2018-03-02T10:10:38.739Z,32.30
2018-03-02T10:13:07.042Z,32.20
2018-03-02T10:15:34.557Z,31.60
2018-03-02T10:18:02.091Z,32.50
2018-03-02T10:20:29.628Z,32.50
2018-03-02T10:22:57.185Z,32.40
2018-03-02T10:25:24.727Z,31.90
2018-03-02T10:27:53.011Z,32.10
2018-03-02T10:30:21.312Z,32.70
2018-03-02T10:32:48.845Z,32.70
2018-03-02T10:35:17.193Z,32.20
2018-03-02T10:37:44.769Z,32.30
2018-03-02T10:40:13.076Z,33.20
2018-03-02T10:42:40.695Z,32.80
2018-03-02T10:45:08.232Z,33.10
2018-03-02T10:57:31.469Z,32.90
2018-03-02T10:59:59.754Z,32.70
2018-03-02T11:02:28.065Z,32.40
2018-03-02T11:05:01.347Z,32.80
2018-03-02T11:07:28.895Z,32.90
2018-03-02T11:09:57.179Z,32.40
2018-03-02T11:12:24.728Z,32.60
2018-03-02T11:14:52.252Z,31.80
2018-03-02T11:17:19.898Z,32.00
2018-03-02T11:19:47.433Z,32.50
2018-03-02T23:59:47.991Z,35.70
